Ellison Bay, WI

1:15 PM CDT on May 27, 2015 (GMT -0500)
Frankfort | | Change Station
CLOSE
Current Station
Airport
Location: Frankfort,
Elevation: 633 ft
Nearby Weather Stations

Elev 633 ft 44.63 °N, 86.20 °W | Updated 22 minutes ago

Overcast
Overcast
54 °F
Feels Like 54 °F
N
0
Wind Variable Wind from North

Today
High -- | Low -- °F
--% Chance of Precip.
Yesterday
High -- | Low -- °F
Precip. -- in
5:07 AM 8:24 PM
Waxing Gibbous, 69% visible
Pressure 29.92 in
Visibility 1.8 miles
Clouds Overcast 300 ft
Dew Point 49 °F
Humidity 83%
Rainfall 0.00 in
Snow Depth Not available.
UV 3 out of 12
Pollen 2.70 out of 12
Air Quality Not available.
Flu Activity Sporadic
METAR KFKS 271753Z AUTO 00000KT 1 3/4SM RA OVC003 12/10 A2992 RMK AO2 T01240095 10157 20116

More Conditions Fewer Conditions

Pressure 29.92 in
Visibility 1.8 miles
Clouds Overcast 300 ft
Dew Point 49 °F
Humidity 83%
Rainfall 0.00 in
Snow Depth Not available.
UV 3 out of 12
Pollen 2.70 out of 12
Air Quality Not available.
Flu Activity Sporadic
METAR KFKS 271753Z AUTO 00000KT 1 3/4SM RA OVC003 12/10 A2992 RMK AO2 T01240095 10157 20116

More Conditions Fewer Conditions

10-Day Weather Forecast

Almanac

Astronomy

May. 27, 2015 Rise Set
Actual Time
Civil Twilight
Nautical Twilight
Astronomical Twilight
Moon
Length of Visible Light
Length of Day
Tomorrow will be .
, % of the Moon is Illuminated

Today's Extremes

State Highs State Lows

Community

WunderPhotos

Upload Photos

1,824,744 photos uploaded!

WunderBlogs® & News

Nearby

Air Quality

  Air Quality AQ Index Pollutant
Not available.

Snow Depth

Station Depth Elevation

Earthquake Activity

City Distance Mag. Time & Date
Minimum magnitude displayed is 2.5.

Coastal Water Temperatures

Place Temperature

Stations

Nearby Weather Stations

Station Location Temp. Windchill Dew Point Humidity Wind Precip. Elev Updated Type